Time;durP1;ratioP1;P1;durP2;ratioP2;P2;SDS_P1;SDS_P2;PMS_P1;PMS_P2;Temp;Humidity;BMP_temperature;BMP_pressure;BME280_temperature;BME280_humidity;BME280_pressure;Samples;Min_cycle;Max_cycle;Signal;HPM_P1;HPM_P2
2023/06/25 00:00:45;;;;;;;10.97;9.97;;;;;;;;;;5093524;28;20541;-58
2023/06/25 00:03:12;;;;;;;10.93;9.50;;;;;;;;;;5093452;28;20863;-58
2023/06/25 00:05:39;;;;;;;11.40;10.20;;;;;;;;;;5093628;28;20889;-58
2023/06/25 00:08:06;;;;;;;10.93;9.70;;;;;;;;;;5093492;28;20860;-58
2023/06/25 00:10:34;;;;;;;10.33;8.93;;;;;;;;;;5093490;28;20985;-58
2023/06/25 00:13:01;;;;;;;9.20;8.40;;;;;;;;;;5093381;28;20443;-58
2023/06/25 00:15:28;;;;;;;8.90;8.13;;;;;;;;;;5093304;28;20455;-59
2023/06/25 00:17:55;;;;;;;9.70;8.70;;;;;;;;;;5093178;28;20457;-58
2023/06/25 00:20:24;;;;;;;9.43;8.63;;;;;;;;;;5092905;28;20947;-58
2023/06/25 00:22:51;;;;;;;8.87;8.17;;;;;;;;;;5093268;28;20483;-58
2023/06/25 00:25:18;;;;;;;8.70;7.83;;;;;;;;;;5093244;28;20537;-58
2023/06/25 00:27:47;;;;;;;8.10;7.40;;;;;;;;;;5093120;28;20451;-58
2023/06/25 00:30:15;;;;;;;8.63;7.83;;;;;;;;;;5091927;28;20477;-58
2023/06/25 00:32:42;;;;;;;9.50;8.50;;;;;;;;;;5092923;28;20458;-58
2023/06/25 00:35:09;;;;;;;10.93;8.90;;;;;;;;;;5093160;28;20458;-58
2023/06/25 00:37:36;;;;;;;8.37;7.67;;;;;;;;;;5093110;28;20530;-58
2023/06/25 00:40:04;;;;;;;10.10;9.10;;;;;;;;;;5092995;28;20465;-58
2023/06/25 00:42:40;;;;;;;8.47;7.77;;;;;;;;;;5092958;28;20520;-59
2023/06/25 00:45:10;;;;;;;8.23;7.43;;;;;;;;;;5093237;28;20459;-58
2023/06/25 00:47:37;;;;;;;8.10;7.50;;;;;;;;;;5093024;28;20454;-58
2023/06/25 00:50:04;;;;;;;9.90;7.53;;;;;;;;;;5092967;28;20486;-58
2023/06/25 00:52:31;;;;;;;8.93;8.13;;;;;;;;;;5092916;28;20540;-58
2023/06/25 00:54:58;;;;;;;8.77;8.00;;;;;;;;;;5092848;28;20542;-59
2023/06/25 00:57:27;;;;;;;8.40;7.60;;;;;;;;;;5092642;28;20840;-58
2023/06/25 00:59:55;;;;;;;9.17;8.27;;;;;;;;;;5092892;28;20450;-59
2023/06/25 01:02:27;;;;;;;8.93;8.13;;;;;;;;;;5092910;28;20469;-58
2023/06/25 01:04:58;;;;;;;9.03;8.27;;;;;;;;;;5092807;28;20453;-58
2023/06/25 01:07:26;;;;;;;8.40;7.50;;;;;;;;;;5092751;28;20810;-58
2023/06/25 01:09:54;;;;;;;8.10;7.40;;;;;;;;;;5092559;28;20509;-58
2023/06/25 01:12:21;;;;;;;8.60;7.80;;;;;;;;;;5092638;28;21010;-58
2023/06/25 01:14:49;;;;;;;7.93;7.30;;;;;;;;;;5092751;28;20454;-58
2023/06/25 01:17:16;;;;;;;8.60;7.80;;;;;;;;;;5092715;28;20927;-58
2023/06/25 01:19:45;;;;;;;7.57;6.97;;;;;;;;;;5092587;28;20799;-58
2023/06/25 01:22:13;;;;;;;7.87;7.07;;;;;;;;;;5092464;28;20936;-58
2023/06/25 01:24:44;;;;;;;9.10;8.20;;;;;;;;;;5092720;28;20450;-58
2023/06/25 01:27:12;;;;;;;8.30;7.60;;;;;;;;;;5092645;28;20456;-58
2023/06/25 01:29:39;;;;;;;9.80;8.10;;;;;;;;;;5092572;28;20453;-58
2023/06/25 01:32:07;;;;;;;8.70;7.90;;;;;;;;;;5092450;28;20967;-58
2023/06/25 01:34:34;;;;;;;8.17;7.57;;;;;;;;;;5092508;28;20458;-59
2023/06/25 01:37:00;;;;;;;8.90;8.00;;;;;;;;;;5092465;28;20447;-58
2023/06/25 01:39:27;;;;;;;9.13;8.33;;;;;;;;;;5092329;28;20464;-60
2023/06/25 01:41:56;;;;;;;9.30;8.50;;;;;;;;;;5094594;28;20544;-60
2023/06/25 01:44:26;;;;;;;9.70;8.70;;;;;;;;;;5096195;28;20447;-59
2023/06/25 01:46:53;;;;;;;9.47;8.50;;;;;;;;;;5096103;28;20449;-59
2023/06/25 01:49:20;;;;;;;10.67;9.07;;;;;;;;;;5095982;28;20533;-59
2023/06/25 01:51:47;;;;;;;9.10;8.40;;;;;;;;;;5096062;28;20488;-59
2023/06/25 01:54:14;;;;;;;9.13;8.33;;;;;;;;;;5096100;28;20450;-59
2023/06/25 01:56:41;;;;;;;9.20;8.40;;;;;;;;;;5095778;28;20476;-59
2023/06/25 01:59:09;;;;;;;8.63;7.93;;;;;;;;;;5095978;28;20547;-59
2023/06/25 02:01:36;;;;;;;10.20;9.23;;;;;;;;;;5095815;28;20453;-59
2023/06/25 02:04:03;;;;;;;8.90;8.20;;;;;;;;;;5095742;28;20536;-59
2023/06/25 02:06:30;;;;;;;9.63;8.67;;;;;;;;;;5095914;28;20537;-60
2023/06/25 02:08:57;;;;;;;8.67;7.97;;;;;;;;;;5096077;28;20446;-60
2023/06/25 02:11:24;;;;;;;10.40;9.17;;;;;;;;;;5095573;28;20486;-59
2023/06/25 02:13:51;;;;;;;9.00;8.30;;;;;;;;;;5095637;28;20451;-59
2023/06/25 02:16:19;;;;;;;11.00;8.67;;;;;;;;;;5095523;28;20798;-60
2023/06/25 02:18:46;;;;;;;8.20;7.50;;;;;;;;;;5095705;28;20453;-59
2023/06/25 02:21:13;;;;;;;9.30;8.07;;;;;;;;;;5095551;28;20504;-60
2023/06/25 02:23:40;;;;;;;9.73;7.90;;;;;;;;;;5095501;28;20483;-59
2023/06/25 02:26:07;;;;;;;10.30;9.37;;;;;;;;;;5095405;28;20538;-59
2023/06/25 02:28:34;;;;;;;9.33;7.83;;;;;;;;;;5095365;28;20527;-60
2023/06/25 02:31:01;;;;;;;8.93;8.33;;;;;;;;;;5095103;28;20487;-59
2023/06/25 02:33:29;;;;;;;9.60;8.80;;;;;;;;;;5095394;28;20464;-59
2023/06/25 02:35:56;;;;;;;10.23;9.13;;;;;;;;;;5095364;28;20557;-60
2023/06/25 02:38:23;;;;;;;10.10;9.20;;;;;;;;;;5095202;28;20451;-59
2023/06/25 02:40:50;;;;;;;11.33;10.23;;;;;;;;;;5095139;28;20456;-59
2023/06/25 02:43:17;;;;;;;11.40;10.30;;;;;;;;;;5094984;28;20539;-60
2023/06/25 02:45:44;;;;;;;10.57;9.60;;;;;;;;;;5094880;28;20454;-59
2023/06/25 02:48:11;;;;;;;10.67;9.57;;;;;;;;;;5095140;28;20813;-60
2023/06/25 02:50:39;;;;;;;10.23;9.23;;;;;;;;;;5094918;28;20477;-59
2023/06/25 02:53:06;;;;;;;10.00;9.00;;;;;;;;;;5093903;28;20459;-59
2023/06/25 02:55:33;;;;;;;9.50;8.70;;;;;;;;;;5094644;28;20450;-59
2023/06/25 02:58:00;;;;;;;9.47;8.60;;;;;;;;;;5094769;28;20447;-59
2023/06/25 03:00:27;;;;;;;7.77;7.03;;;;;;;;;;5094835;28;20458;-59
2023/06/25 03:02:54;;;;;;;9.60;8.80;;;;;;;;;;5094806;28;20541;-59
2023/06/25 03:05:21;;;;;;;9.30;8.40;;;;;;;;;;5094698;28;20454;-59
2023/06/25 03:07:53;;;;;;;9.60;8.80;;;;;;;;;;5094640;28;20451;-59
2023/06/25 03:10:20;;;;;;;10.83;9.33;;;;;;;;;;5094549;28;20874;-60
2023/06/25 03:12:47;;;;;;;9.07;8.37;;;;;;;;;;5094642;28;20489;-59
2023/06/25 03:15:14;;;;;;;10.77;9.77;;;;;;;;;;5094620;28;20446;-59
2023/06/25 03:17:41;;;;;;;10.27;9.37;;;;;;;;;;5094509;28;20827;-59
2023/06/25 03:20:09;;;;;;;9.47;8.43;;;;;;;;;;5094367;28;20543;-59
2023/06/25 03:22:36;;;;;;;9.37;8.47;;;;;;;;;;5094236;28;20542;-59
2023/06/25 03:25:04;;;;;;;10.40;9.50;;;;;;;;;;5094137;28;20447;-60
2023/06/25 03:27:31;;;;;;;9.53;8.73;;;;;;;;;;5094368;28;20544;-59
2023/06/25 03:29:58;;;;;;;9.83;8.90;;;;;;;;;;5094049;28;20975;-59
2023/06/25 03:32:25;;;;;;;10.20;9.20;;;;;;;;;;5094117;28;20518;-60
2023/06/25 03:34:53;;;;;;;10.03;9.10;;;;;;;;;;5094103;28;20544;-59
2023/06/25 03:37:20;;;;;;;9.23;8.33;;;;;;;;;;5094029;28;20446;-59
2023/06/25 03:39:47;;;;;;;9.70;8.80;;;;;;;;;;5094000;28;20453;-59
2023/06/25 03:42:15;;;;;;;9.83;8.93;;;;;;;;;;5094123;28;20863;-59
2023/06/25 03:44:46;;;;;;;9.50;8.80;;;;;;;;;;5093922;28;20450;-60
2023/06/25 03:47:13;;;;;;;10.10;9.30;;;;;;;;;;5093873;28;20832;-60
2023/06/25 03:49:40;;;;;;;10.17;9.30;;;;;;;;;;5093699;28;20991;-59
2023/06/25 03:52:07;;;;;;;9.60;8.60;;;;;;;;;;5093648;28;20834;-60
2023/06/25 03:54:34;;;;;;;10.03;9.07;;;;;;;;;;5093963;28;20486;-60
2023/06/25 03:57:01;;;;;;;10.47;8.70;;;;;;;;;;5093448;28;20855;-60
2023/06/25 03:59:31;;;;;;;9.90;9.00;;;;;;;;;;5093665;28;20543;-59
2023/06/25 04:01:58;;;;;;;10.60;9.60;;;;;;;;;;5093591;28;20454;-59
2023/06/25 04:04:25;;;;;;;9.70;8.90;;;;;;;;;;5093365;28;20818;-59
2023/06/25 04:06:52;;;;;;;9.30;8.40;;;;;;;;;;5093371;28;20533;-60
2023/06/25 04:09:19;;;;;;;9.80;9.00;;;;;;;;;;5093642;28;20447;-59
2023/06/25 04:11:46;;;;;;;10.40;9.40;;;;;;;;;;5093436;28;20493;-59
2023/06/25 04:14:13;;;;;;;11.43;10.37;;;;;;;;;;5093402;28;20454;-59
2023/06/25 04:16:41;;;;;;;10.70;9.70;;;;;;;;;;5093378;28;20454;-59
2023/06/25 04:19:09;;;;;;;10.47;9.57;;;;;;;;;;5093286;28;20446;-59
2023/06/25 04:21:36;;;;;;;9.90;8.97;;;;;;;;;;5093216;28;20979;-59
2023/06/25 04:24:03;;;;;;;10.60;9.50;;;;;;;;;;5093361;28;20542;-60
2023/06/25 04:26:30;;;;;;;9.67;8.87;;;;;;;;;;5093326;28;20884;-60
2023/06/25 04:28:57;;;;;;;9.83;9.00;;;;;;;;;;5093235;28;20449;-59
2023/06/25 04:31:23;;;;;;;10.17;9.27;;;;;;;;;;5093044;28;20478;-59
2023/06/25 04:33:52;;;;;;;10.40;9.53;;;;;;;;;;5093062;28;20481;-60
2023/06/25 04:36:19;;;;;;;9.33;8.50;;;;;;;;;;5093186;28;20475;-59
2023/06/25 04:38:46;;;;;;;9.87;8.93;;;;;;;;;;5093360;28;20459;-60
2023/06/25 04:41:13;;;;;;;10.33;9.53;;;;;;;;;;5093050;28;20795;-59
2023/06/25 04:43:40;;;;;;;10.37;9.57;;;;;;;;;;5093061;28;20537;-59
2023/06/25 04:46:07;;;;;;;10.80;9.90;;;;;;;;;;5092994;28;20538;-59
2023/06/25 04:48:33;;;;;;;11.80;10.60;;;;;;;;;;5092767;28;20527;-60
2023/06/25 04:51:03;;;;;;;10.53;9.63;;;;;;;;;;5092983;28;20478;-59
2023/06/25 04:53:30;;;;;;;10.93;9.83;;;;;;;;;;5092774;28;20950;-59
2023/06/25 04:55:56;;;;;;;10.13;9.23;;;;;;;;;;5092735;28;20564;-59
2023/06/25 04:58:23;;;;;;;9.70;8.90;;;;;;;;;;5092858;28;20455;-58
2023/06/25 05:00:50;;;;;;;9.90;9.10;;;;;;;;;;5092803;28;20447;-58
2023/06/25 05:03:17;;;;;;;10.60;9.67;;;;;;;;;;5092974;28;20454;-58
2023/06/25 05:05:44;;;;;;;10.17;9.27;;;;;;;;;;5092914;28;20490;-59
2023/06/25 05:08:12;;;;;;;9.33;8.57;;;;;;;;;;5092888;28;20537;-58
2023/06/25 05:10:39;;;;;;;9.90;9.03;;;;;;;;;;5092664;28;20446;-59
2023/06/25 05:13:06;;;;;;;10.17;9.27;;;;;;;;;;5092633;28;20976;-59
2023/06/25 05:15:33;;;;;;;9.10;8.40;;;;;;;;;;5092681;28;20541;-59
2023/06/25 05:18:00;;;;;;;9.40;8.70;;;;;;;;;;5096836;28;20964;-58
2023/06/25 05:20:27;;;;;;;9.13;8.23;;;;;;;;;;5096730;28;20477;-59
2023/06/25 05:22:54;;;;;;;8.40;7.60;;;;;;;;;;5096626;28;20454;-59
2023/06/25 05:25:22;;;;;;;9.57;8.77;;;;;;;;;;5096597;28;20478;-59
2023/06/25 05:27:49;;;;;;;9.90;8.80;;;;;;;;;;5096494;28;20482;-59
2023/06/25 05:30:16;;;;;;;9.10;8.40;;;;;;;;;;5096327;28;20796;-58
2023/06/25 05:32:42;;;;;;;8.97;8.17;;;;;;;;;;5096404;28;20495;-59
2023/06/25 05:35:10;;;;;;;9.10;8.20;;;;;;;;;;5096436;28;20453;-59
2023/06/25 05:37:36;;;;;;;9.57;8.80;;;;;;;;;;5096177;28;20451;-59
2023/06/25 05:40:03;;;;;;;8.67;7.97;;;;;;;;;;5096348;28;20804;-59
2023/06/25 05:42:32;;;;;;;8.00;7.40;;;;;;;;;;5096133;28;20896;-59
2023/06/25 05:44:59;;;;;;;10.03;9.13;;;;;;;;;;5096413;28;20482;-59
2023/06/25 05:47:25;;;;;;;9.27;8.47;;;;;;;;;;5096228;28;20458;-60
2023/06/25 05:49:52;;;;;;;10.10;9.20;;;;;;;;;;5096055;28;21036;-59
2023/06/25 05:52:19;;;;;;;9.60;8.60;;;;;;;;;;5095992;28;20492;-59
2023/06/25 05:54:46;;;;;;;9.50;8.70;;;;;;;;;;5096008;28;20453;-60
2023/06/25 05:57:13;;;;;;;11.23;10.13;;;;;;;;;;5095670;28;20497;-60
2023/06/25 05:59:41;;;;;;;10.33;9.53;;;;;;;;;;5095781;28;20942;-60
2023/06/25 06:02:08;;;;;;;10.30;9.30;;;;;;;;;;5095929;28;20903;-60
2023/06/25 06:04:35;;;;;;;11.70;10.80;;;;;;;;;;5095843;28;20472;-59
2023/06/25 06:07:02;;;;;;;10.20;9.30;;;;;;;;;;5095820;28;20447;-59
2023/06/25 06:09:29;;;;;;;11.60;9.07;;;;;;;;;;5095774;28;20439;-59
2023/06/25 06:11:56;;;;;;;11.10;9.90;;;;;;;;;;5095457;28;20478;-59
2023/06/25 06:14:23;;;;;;;10.27;9.20;;;;;;;;;;5095815;28;20447;-59
2023/06/25 06:16:51;;;;;;;9.60;8.80;;;;;;;;;;5095682;28;20540;-59
2023/06/25 06:19:18;;;;;;;10.10;9.30;;;;;;;;;;5095593;28;20814;-59
2023/06/25 06:21:45;;;;;;;9.47;8.70;;;;;;;;;;5095483;28;20813;-59
2023/06/25 06:24:12;;;;;;;9.00;8.30;;;;;;;;;;5095368;28;20447;-60
2023/06/25 06:26:39;;;;;;;9.57;8.77;;;;;;;;;;5095466;28;20443;-59
2023/06/25 06:29:06;;;;;;;9.67;8.87;;;;;;;;;;5095417;28;20484;-60
2023/06/25 06:31:33;;;;;;;10.43;8.63;;;;;;;;;;5095276;28;20478;-59
2023/06/25 06:34:01;;;;;;;9.23;8.47;;;;;;;;;;5095237;28;20447;-59
2023/06/25 06:36:28;;;;;;;9.87;8.93;;;;;;;;;;5095199;28;20538;-59
2023/06/25 06:38:55;;;;;;;11.83;9.13;;;;;;;;;;5095118;28;20447;-60
2023/06/25 06:41:22;;;;;;;10.20;9.30;;;;;;;;;;5095290;28;20453;-59
2023/06/25 06:43:48;;;;;;;7.80;7.20;;;;;;;;;;5095116;28;20984;-59
2023/06/25 06:46:15;;;;;;;9.20;8.40;;;;;;;;;;5095320;28;20508;-59
2023/06/25 06:48:43;;;;;;;8.80;8.10;;;;;;;;;;5094971;28;20447;-59
2023/06/25 06:51:11;;;;;;;8.97;7.50;;;;;;;;;;5094791;28;20479;-59
2023/06/25 06:53:38;;;;;;;7.50;7.00;;;;;;;;;;5094805;28;20443;-59
2023/06/25 06:56:07;;;;;;;8.73;8.03;;;;;;;;;;5094824;28;21077;-59
2023/06/25 06:58:34;;;;;;;8.10;7.30;;;;;;;;;;5094857;28;20451;-59
2023/06/25 07:01:01;;;;;;;8.10;7.30;;;;;;;;;;5094840;28;20528;-59
2023/06/25 07:03:27;;;;;;;6.70;6.10;;;;;;;;;;5094576;28;20534;-59
2023/06/25 07:05:54;;;;;;;6.53;6.07;;;;;;;;;;5094539;28;20877;-59
2023/06/25 07:08:22;;;;;;;6.80;6.30;;;;;;;;;;5094799;28;20439;-59
2023/06/25 07:10:49;;;;;;;9.43;6.47;;;;;;;;;;5094613;28;20483;-59
2023/06/25 07:13:16;;;;;;;6.50;5.97;;;;;;;;;;5094438;28;20829;-59
2023/06/25 07:15:43;;;;;;;6.20;5.70;;;;;;;;;;5094457;28;20542;-59
2023/06/25 07:18:10;;;;;;;6.57;6.07;;;;;;;;;;5094414;28;20537;-59
2023/06/25 07:20:37;;;;;;;6.37;5.77;;;;;;;;;;5094171;28;20478;-59
2023/06/25 07:23:04;;;;;;;4.80;4.50;;;;;;;;;;5094491;28;20537;-59
2023/06/25 07:25:32;;;;;;;7.53;6.30;;;;;;;;;;5094404;28;20826;-59
2023/06/25 07:27:59;;;;;;;6.27;5.67;;;;;;;;;;5094234;28;20810;-59
2023/06/25 07:30:26;;;;;;;6.43;5.80;;;;;;;;;;5094105;28;20533;-59
2023/06/25 07:32:53;;;;;;;6.53;5.90;;;;;;;;;;5093947;28;20475;-59
2023/06/25 07:35:20;;;;;;;6.53;5.13;;;;;;;;;;5094268;28;20443;-59
2023/06/25 07:37:47;;;;;;;6.20;5.70;;;;;;;;;;5094192;28;20512;-59
2023/06/25 07:40:14;;;;;;;6.97;6.30;;;;;;;;;;5093560;28;20449;-59
2023/06/25 07:42:42;;;;;;;6.70;6.10;;;;;;;;;;5094043;28;20541;-59
2023/06/25 07:45:09;;;;;;;7.23;6.63;;;;;;;;;;5093536;28;20451;-59
2023/06/25 07:47:36;;;;;;;6.57;6.00;;;;;;;;;;5093630;28;20455;-59
2023/06/25 07:50:03;;;;;;;6.07;5.57;;;;;;;;;;5093948;28;20537;-59
2023/06/25 07:52:30;;;;;;;6.40;5.90;;;;;;;;;;5093702;28;20481;-59
2023/06/25 07:54:57;;;;;;;6.07;5.53;;;;;;;;;;5093749;28;20478;-59
2023/06/25 07:57:24;;;;;;;6.53;5.93;;;;;;;;;;5093503;28;20474;-59
2023/06/25 07:59:53;;;;;;;6.37;5.77;;;;;;;;;;5094058;28;20451;-59
2023/06/25 08:02:20;;;;;;;5.97;5.50;;;;;;;;;;5093434;28;20856;-59
2023/06/25 08:04:47;;;;;;;5.27;4.87;;;;;;;;;;5093671;28;20478;-59
2023/06/25 08:07:14;;;;;;;5.33;4.83;;;;;;;;;;5093527;28;20934;-59
2023/06/25 08:09:41;;;;;;;5.53;5.17;;;;;;;;;;5093502;28;20930;-59
2023/06/25 08:12:08;;;;;;;5.70;5.30;;;;;;;;;;5093246;28;20981;-59
2023/06/25 08:14:35;;;;;;;6.17;4.97;;;;;;;;;;5093215;28;20451;-59
2023/06/25 08:17:04;;;;;;;5.97;5.37;;;;;;;;;;5093277;28;20447;-58
2023/06/25 08:19:30;;;;;;;5.43;5.10;;;;;;;;;;5093412;28;20938;-59
2023/06/25 08:21:57;;;;;;;5.53;5.13;;;;;;;;;;5093357;28;20462;-59
2023/06/25 08:24:24;;;;;;;6.77;6.17;;;;;;;;;;5093295;28;20538;-59
2023/06/25 08:26:51;;;;;;;7.10;5.80;;;;;;;;;;5093070;28;21034;-59
2023/06/25 08:29:18;;;;;;;5.70;5.20;;;;;;;;;;5093110;28;20561;-59
2023/06/25 08:31:45;;;;;;;5.40;5.00;;;;;;;;;;5093214;28;20443;-59
2023/06/25 08:34:13;;;;;;;5.70;5.27;;;;;;;;;;5093186;28;20454;-59
2023/06/25 08:36:40;;;;;;;5.27;4.87;;;;;;;;;;5093179;28;20504;-59
2023/06/25 08:39:07;;;;;;;5.57;5.17;;;;;;;;;;5092951;28;20459;-59
2023/06/25 08:41:34;;;;;;;5.97;5.57;;;;;;;;;;5093036;28;20883;-59
2023/06/25 08:44:01;;;;;;;5.90;5.50;;;;;;;;;;5092862;28;20462;-59
2023/06/25 08:46:29;;;;;;;6.73;5.30;;;;;;;;;;5093125;28;20446;-59
2023/06/25 08:48:56;;;;;;;5.60;5.20;;;;;;;;;;5093017;28;20438;-59
2023/06/25 08:51:25;;;;;;;6.10;5.50;;;;;;;;;;5094472;28;20442;-59
2023/06/25 08:53:52;;;;;;;6.00;5.50;;;;;;;;;;5097041;28;20521;-59
2023/06/25 08:56:19;;;;;;;4.80;4.43;;;;;;;;;;5096817;28;20481;-59
2023/06/25 08:58:46;;;;;;;5.63;5.10;;;;;;;;;;5097178;28;20445;-59
2023/06/25 09:01:13;;;;;;;6.00;5.53;;;;;;;;;;5097026;28;20449;-59
2023/06/25 09:03:42;;;;;;;6.17;5.57;;;;;;;;;;5096954;28;20469;-59
2023/06/25 09:06:13;;;;;;;5.67;5.20;;;;;;;;;;5096743;28;20443;-59
2023/06/25 09:08:42;;;;;;;5.93;5.43;;;;;;;;;;5096725;28;20470;-59
2023/06/25 09:11:09;;;;;;;6.07;5.67;;;;;;;;;;5096694;28;20442;-59
2023/06/25 09:13:36;;;;;;;6.53;5.47;;;;;;;;;;5096686;28;20483;-59
2023/06/25 09:16:04;;;;;;;5.50;5.10;;;;;;;;;;5096614;28;20450;-59
2023/06/25 09:18:31;;;;;;;4.97;4.53;;;;;;;;;;5096686;28;20453;-59
2023/06/25 09:21:01;;;;;;;5.57;5.17;;;;;;;;;;5096435;28;20857;-59
2023/06/25 09:23:28;;;;;;;5.53;5.03;;;;;;;;;;5096443;28;20478;-59
2023/06/25 09:25:56;;;;;;;6.17;5.67;;;;;;;;;;5096586;28;20450;-59
2023/06/25 09:28:24;;;;;;;4.53;4.23;;;;;;;;;;5096605;28;20453;-59
2023/06/25 09:30:55;;;;;;;5.60;5.20;;;;;;;;;;5096487;28;20520;-59
2023/06/25 09:33:22;;;;;;;5.37;4.93;;;;;;;;;;5096245;28;20478;-59
2023/06/25 09:35:49;;;;;;;5.40;5.03;;;;;;;;;;5096159;28;20450;-59
2023/06/25 09:38:16;;;;;;;5.60;5.20;;;;;;;;;;5096168;28;20447;-59
2023/06/25 09:40:43;;;;;;;5.40;5.00;;;;;;;;;;5096293;28;20454;-59
2023/06/25 09:43:12;;;;;;;5.87;5.43;;;;;;;;;;5096137;28;20453;-59
2023/06/25 09:45:39;;;;;;;5.97;5.30;;;;;;;;;;5096461;28;20785;-59
2023/06/25 09:48:07;;;;;;;4.93;4.63;;;;;;;;;;5095999;28;20446;-59
2023/06/25 09:50:36;;;;;;;5.73;5.33;;;;;;;;;;5095893;28;20470;-59
2023/06/25 09:53:04;;;;;;;5.83;5.37;;;;;;;;;;5096033;28;20486;-59
2023/06/25 09:55:32;;;;;;;5.47;5.07;;;;;;;;;;5095790;28;20478;-59
2023/06/25 09:58:00;;;;;;;5.40;5.00;;;;;;;;;;5095999;28;20450;-59
2023/06/25 10:00:29;;;;;;;6.17;5.67;;;;;;;;;;5095825;28;20805;-59
2023/06/25 10:02:55;;;;;;;5.70;5.30;;;;;;;;;;5095323;28;20538;-59
2023/06/25 10:05:23;;;;;;;4.90;4.50;;;;;;;;;;5095586;28;20449;-59
2023/06/25 10:07:50;;;;;;;5.80;5.40;;;;;;;;;;5095784;28;20449;-59
2023/06/25 10:10:20;;;;;;;5.00;4.70;;;;;;;;;;5095581;28;20469;-59
2023/06/25 10:12:49;;;;;;;5.03;4.60;;;;;;;;;;5095668;28;20841;-59
2023/06/25 10:15:16;;;;;;;5.80;5.40;;;;;;;;;;5095348;28;20477;-59
2023/06/25 10:17:48;;;;;;;5.50;5.10;;;;;;;;;;5095205;28;20451;-59
2023/06/25 10:20:25;;;;;;;5.07;4.77;;;;;;;;;;5095411;28;20453;-59
2023/06/25 10:23:02;;;;;;;5.20;4.90;;;;;;;;;;5095522;28;20457;-59
2023/06/25 10:25:29;;;;;;;5.63;5.20;;;;;;;;;;5095233;28;20447;-59
2023/06/25 10:28:02;;;;;;;5.50;5.10;;;;;;;;;;5095150;28;20447;-59
2023/06/25 10:30:36;;;;;;;5.50;5.10;;;;;;;;;;5095414;28;20447;-59
2023/06/25 10:33:05;;;;;;;5.60;5.13;;;;;;;;;;5095074;28;20465;-59
2023/06/25 10:35:36;;;;;;;5.37;4.97;;;;;;;;;;5095159;28;20446;-59
2023/06/25 10:38:03;;;;;;;5.97;5.37;;;;;;;;;;5095000;28;20500;-59
2023/06/25 10:40:33;;;;;;;6.07;5.47;;;;;;;;;;5094994;28;20450;-59
2023/06/25 10:43:00;;;;;;;5.90;5.50;;;;;;;;;;5095127;28;20532;-59
2023/06/25 10:45:27;;;;;;;5.93;5.43;;;;;;;;;;5095051;28;20447;-59
2023/06/25 10:48:01;;;;;;;7.00;5.80;;;;;;;;;;5094782;28;20557;-59
2023/06/25 10:50:31;;;;;;;5.27;4.87;;;;;;;;;;5094806;28;20447;-59
2023/06/25 10:52:58;;;;;;;6.17;5.67;;;;;;;;;;5094549;28;20829;-59
2023/06/25 10:55:25;;;;;;;6.33;5.87;;;;;;;;;;5094359;28;20451;-59
2023/06/25 10:57:53;;;;;;;5.53;4.87;;;;;;;;;;5094696;28;20450;-59
2023/06/25 11:00:22;;;;;;;4.30;4.00;;;;;;;;;;5094317;28;20541;-59
2023/06/25 11:02:51;;;;;;;5.67;5.17;;;;;;;;;;5094364;28;20891;-59
2023/06/25 11:05:18;;;;;;;5.50;5.03;;;;;;;;;;5094411;28;20464;-59
2023/06/25 11:07:46;;;;;;;5.00;4.70;;;;;;;;;;5094421;28;20475;-59
2023/06/25 11:10:13;;;;;;;5.90;5.40;;;;;;;;;;5094395;28;20451;-59
2023/06/25 11:12:40;;;;;;;5.10;4.70;;;;;;;;;;5094253;28;20523;-59
2023/06/25 11:15:07;;;;;;;5.13;4.63;;;;;;;;;;5093399;28;20449;-59
2023/06/25 11:17:34;;;;;;;5.17;4.77;;;;;;;;;;5093992;28;20488;-59
2023/06/25 11:20:01;;;;;;;4.60;4.30;;;;;;;;;;5094009;28;20557;-59
2023/06/25 11:22:28;;;;;;;5.23;4.73;;;;;;;;;;5094389;28;20439;-59
2023/06/25 11:24:57;;;;;;;4.50;4.20;;;;;;;;;;5093806;28;20443;-59
2023/06/25 11:27:25;;;;;;;5.03;4.73;;;;;;;;;;5094116;28;20442;-59
2023/06/25 11:29:53;;;;;;;5.30;4.87;;;;;;;;;;5094115;28;20455;-59
2023/06/25 11:32:23;;;;;;;6.17;5.67;;;;;;;;;;5093925;28;20451;-59
2023/06/25 11:34:50;;;;;;;4.90;4.60;;;;;;;;;;5093676;28;20474;-59
2023/06/25 11:37:18;;;;;;;5.20;4.80;;;;;;;;;;5094099;28;20447;-59
2023/06/25 11:39:46;;;;;;;6.10;5.70;;;;;;;;;;5093840;28;20538;-59
2023/06/25 11:42:15;;;;;;;5.20;4.90;;;;;;;;;;5093893;28;20541;-59
2023/06/25 11:44:42;;;;;;;5.03;4.63;;;;;;;;;;5093827;28;20455;-59
2023/06/25 11:47:10;;;;;;;5.80;5.30;;;;;;;;;;5093638;28;20453;-59
2023/06/25 11:49:37;;;;;;;15.33;6.10;;;;;;;;;;5093855;28;20534;-59
2023/06/25 11:52:05;;;;;;;6.30;5.70;;;;;;;;;;5093765;28;20946;-59
2023/06/25 11:54:31;;;;;;;4.33;4.07;;;;;;;;;;5093603;28;20510;-59
2023/06/25 11:56:58;;;;;;;4.83;4.43;;;;;;;;;;5093436;28;20471;-59
2023/06/25 11:59:27;;;;;;;5.07;4.60;;;;;;;;;;5093537;28;20451;-59
2023/06/25 12:01:54;;;;;;;5.60;4.50;;;;;;;;;;5093323;28;20435;-59
2023/06/25 12:04:21;;;;;;;5.17;4.67;;;;;;;;;;5093440;28;20534;-59
2023/06/25 12:06:48;;;;;;;7.37;5.30;;;;;;;;;;5093503;28;20453;-59
2023/06/25 12:09:15;;;;;;;5.50;5.00;;;;;;;;;;5093450;28;20454;-59
2023/06/25 12:11:42;;;;;;;4.77;4.40;;;;;;;;;;5093305;28;20521;-59
2023/06/25 12:14:09;;;;;;;5.30;4.90;;;;;;;;;;5093056;28;21018;-59
2023/06/25 12:16:38;;;;;;;5.97;5.57;;;;;;;;;;5093198;28;20813;-59
2023/06/25 12:19:05;;;;;;;5.10;4.70;;;;;;;;;;5093333;28;20541;-59
2023/06/25 12:21:32;;;;;;;4.93;4.53;;;;;;;;;;5093087;28;20504;-59
2023/06/25 12:23:59;;;;;;;6.30;5.50;;;;;;;;;;5093230;28;20546;-59
2023/06/25 12:26:26;;;;;;;6.07;4.70;;;;;;;;;;5092901;28;21000;-59
2023/06/25 12:28:53;;;;;;;5.17;4.77;;;;;;;;;;5093030;28;20879;-59
2023/06/25 12:31:20;;;;;;;4.40;4.10;;;;;;;;;;5093246;28;20447;-59
2023/06/25 12:33:48;;;;;;;4.50;4.20;;;;;;;;;;5092942;28;20470;-59
2023/06/25 12:36:15;;;;;;;4.53;4.13;;;;;;;;;;5093039;28;20447;-59
2023/06/25 12:38:42;;;;;;;4.53;4.33;;;;;;;;;;5092849;28;20455;-59
2023/06/25 12:41:09;;;;;;;4.37;3.97;;;;;;;;;;5092759;28;20446;-59
2023/06/25 12:43:36;;;;;;;4.13;3.83;;;;;;;;;;5092796;28;20451;-59
2023/06/25 12:46:04;;;;;;;3.67;3.47;;;;;;;;;;5092884;28;20443;-59
2023/06/25 12:48:31;;;;;;;5.03;4.70;;;;;;;;;;5092734;28;20575;-59
2023/06/25 12:50:59;;;;;;;4.37;4.07;;;;;;;;;;5092741;28;20529;-59
2023/06/25 12:53:26;;;;;;;5.20;4.60;;;;;;;;;;5092587;28;20492;-59
2023/06/25 12:55:53;;;;;;;4.33;4.13;;;;;;;;;;5092414;28;20480;-59
2023/06/25 12:58:20;;;;;;;4.07;3.83;;;;;;;;;;5092842;28;20455;-58
2023/06/25 13:00:47;;;;;;;8.33;4.50;;;;;;;;;;5092851;28;20534;-59
2023/06/25 13:03:14;;;;;;;4.67;4.37;;;;;;;;;;5092827;28;20545;-59
2023/06/25 13:05:41;;;;;;;4.73;4.20;;;;;;;;;;5092706;28;20496;-59
2023/06/25 13:08:09;;;;;;;4.73;4.43;;;;;;;;;;5092619;28;20533;-59
2023/06/25 13:10:36;;;;;;;4.27;3.87;;;;;;;;;;5092463;28;20451;-59
2023/06/25 13:13:03;;;;;;;4.47;4.17;;;;;;;;;;5092527;28;20980;-59
2023/06/25 13:15:31;;;;;;;4.13;3.87;;;;;;;;;;5092544;28;20569;-59
2023/06/25 13:17:58;;;;;;;4.97;4.57;;;;;;;;;;5092452;28;20438;-59
2023/06/25 13:20:25;;;;;;;4.27;3.97;;;;;;;;;;5092495;28;20443;-59
2023/06/25 13:22:52;;;;;;;4.70;4.40;;;;;;;;;;5092473;28;20852;-60
2023/06/25 13:25:21;;;;;;;4.80;4.50;;;;;;;;;;5092533;28;20487;-59
2023/06/25 13:27:47;;;;;;;4.87;4.30;;;;;;;;;;5092638;28;20453;-64
2023/06/25 13:30:14;;;;;;;5.20;4.80;;;;;;;;;;5092632;28;20451;-59
2023/06/25 13:32:41;;;;;;;5.60;5.10;;;;;;;;;;5092502;28;20447;-59
2023/06/25 13:35:08;;;;;;;5.23;4.73;;;;;;;;;;5092420;28;20489;-59
2023/06/25 13:37:35;;;;;;;5.23;4.70;;;;;;;;;;5093985;28;20933;-59
2023/06/25 13:40:03;;;;;;;4.43;4.03;;;;;;;;;;5096342;28;20457;-59
2023/06/25 13:42:32;;;;;;;5.13;4.70;;;;;;;;;;5096308;28;20447;-59
2023/06/25 13:44:59;;;;;;;5.60;5.20;;;;;;;;;;5096112;28;20477;-59
2023/06/25 13:47:26;;;;;;;7.53;4.83;;;;;;;;;;5096127;28;20472;-59
2023/06/25 13:49:53;;;;;;;4.90;4.60;;;;;;;;;;5096089;28;20461;-59
2023/06/25 13:52:20;;;;;;;4.93;4.57;;;;;;;;;;5095932;28;20453;-59
2023/06/25 13:54:46;;;;;;;4.13;3.80;;;;;;;;;;5096112;28;20573;-59
2023/06/25 13:57:13;;;;;;;5.53;5.13;;;;;;;;;;5095552;28;20474;-59
2023/06/25 13:59:43;;;;;;;4.93;4.60;;;;;;;;;;5095837;28;20446;-59
2023/06/25 14:02:10;;;;;;;5.60;5.20;;;;;;;;;;5096081;28;20439;-59
2023/06/25 14:04:37;;;;;;;5.17;4.77;;;;;;;;;;5095570;28;20446;-59
2023/06/25 14:07:04;;;;;;;5.30;4.90;;;;;;;;;;5095596;28;20858;-59
2023/06/25 14:09:31;;;;;;;7.03;4.83;;;;;;;;;;5095804;28;20806;-59
2023/06/25 14:11:58;;;;;;;5.73;5.07;;;;;;;;;;5095798;28;20449;-59
2023/06/25 14:14:25;;;;;;;4.90;4.50;;;;;;;;;;5095640;28;20479;-59
2023/06/25 14:16:53;;;;;;;5.47;5.00;;;;;;;;;;5095627;28;20829;-59
2023/06/25 14:19:20;;;;;;;4.10;3.90;;;;;;;;;;5095545;28;20889;-59
2023/06/25 14:21:47;;;;;;;4.90;4.50;;;;;;;;;;5095606;28;20451;-59
2023/06/25 14:24:14;;;;;;;5.23;4.93;;;;;;;;;;5095624;28;20864;-59
2023/06/25 14:26:41;;;;;;;5.63;4.90;;;;;;;;;;5095517;28;20453;-59
2023/06/25 14:29:07;;;;;;;4.43;4.03;;;;;;;;;;5095338;28;20534;-59
2023/06/25 14:31:34;;;;;;;4.83;4.53;;;;;;;;;;5095232;28;20454;-59
2023/06/25 14:34:03;;;;;;;4.40;4.20;;;;;;;;;;5095001;28;20924;-59
2023/06/25 14:36:30;;;;;;;4.80;4.50;;;;;;;;;;5095427;28;20501;-59
2023/06/25 14:38:57;;;;;;;7.20;5.47;;;;;;;;;;5095331;28;20511;-59
2023/06/25 14:41:24;;;;;;;4.87;4.57;;;;;;;;;;5095174;28;20442;-59